Time;durP1;ratioP1;P1;durP2;ratioP2;P2;SDS_P1;SDS_P2;PMS_P1;PMS_P2;Temp;Humidity;BMP_temperature;BMP_pressure;BME280_temperature;BME280_humidity;BME280_pressure;Samples;Min_cycle;Max_cycle;Signal;HPM_P1;HPM_P2
2022/04/01 00:01:40;;;;;;;0.17;0.10;;;18.30;58.50;;;;;;4980767;28;20054;-14
2022/04/01 00:04:06;;;;;;;0.30;0.25;;;18.30;58.40;;;;;;4980576;28;20423;-13
2022/04/01 00:06:31;;;;;;;0.25;0.20;;;18.30;58.30;;;;;;4983848;28;20050;-13
2022/04/01 00:08:57;;;;;;;0.98;0.17;;;18.30;58.30;;;;;;4975035;28;20042;-13
2022/04/01 00:11:23;;;;;;;0.22;0.15;;;18.30;58.30;;;;;;4975454;28;20093;-13
2022/04/01 00:13:48;;;;;;;0.20;0.10;;;18.30;58.20;;;;;;4982285;28;20058;-14
2022/04/01 00:16:15;;;;;;;0.20;0.17;;;18.30;58.30;;;;;;4983726;28;20472;-14
2022/04/01 00:18:40;;;;;;;0.20;0.10;;;18.40;58.20;;;;;;4988603;28;20045;-14
2022/04/01 00:21:06;;;;;;;0.13;0.13;;;18.40;58.20;;;;;;4986101;28;20051;-13
2022/04/01 00:23:31;;;;;;;0.10;0.10;;;18.30;58.20;;;;;;4979091;28;20181;-14
2022/04/01 00:25:57;;;;;;;0.10;0.10;;;18.30;58.10;;;;;;4977069;28;20047;-13
2022/04/01 00:28:23;;;;;;;0.20;0.10;;;18.30;58.20;;;;;;4986357;28;20046;-14
2022/04/01 00:30:48;;;;;;;0.25;0.25;;;18.30;58.10;;;;;;4996765;28;20116;-14
2022/04/01 00:33:16;;;;;;;0.20;0.20;;;18.30;58.10;;;;;;4994995;28;20066;-15
2022/04/01 00:35:42;;;;;;;0.57;0.30;;;18.30;58.30;;;;;;4997354;28;20046;-14
2022/04/01 00:38:08;;;;;;;0.32;0.20;;;18.30;58.30;;;;;;4996826;28;20046;-13
2022/04/01 00:40:35;;;;;;;0.22;0.13;;;18.30;58.20;;;;;;4983808;28;20574;-13
2022/04/01 00:43:01;;;;;;;0.10;0.10;;;18.30;58.20;;;;;;4978661;28;20097;-13
2022/04/01 00:45:27;;;;;;;0.30;0.28;;;18.30;58.20;;;;;;4991021;28;20076;-13
2022/04/01 00:47:54;;;;;;;0.20;0.13;;;18.30;58.20;;;;;;4990548;28;20120;-13
2022/04/01 00:50:20;;;;;;;1.52;0.20;;;18.20;58.30;;;;;;4985568;28;20047;-13
2022/04/01 00:52:45;;;;;;;0.20;0.20;;;18.20;58.00;;;;;;4988358;28;20089;-13
2022/04/01 00:55:11;;;;;;;0.28;0.20;;;18.20;58.10;;;;;;4997000;28;20084;-12
2022/04/01 00:57:37;;;;;;;0.20;0.10;;;18.20;58.10;;;;;;4996972;28;20050;-14
2022/04/01 01:00:05;;;;;;;0.60;0.50;;;18.20;58.10;;;;;;4983494;28;20113;-15
2022/04/01 01:02:30;;;;;;;0.10;0.10;;;18.20;58.20;;;;;;4977660;28;20051;-15
2022/04/01 01:04:56;;;;;;;0.17;0.10;;;18.20;58.10;;;;;;4978093;28;20043;-16
2022/04/01 01:07:22;;;;;;;0.13;0.10;;;18.20;58.10;;;;;;4986871;28;20054;-15
2022/04/01 01:09:47;;;;;;;0.20;0.20;;;18.20;58.00;;;;;;4997414;28;20526;-14
2022/04/01 01:12:13;;;;;;;0.43;0.30;;;18.30;57.90;;;;;;4996192;28;20065;-13
2022/04/01 01:14:40;;;;;;;0.20;0.20;;;18.30;57.80;;;;;;4997456;28;20572;-14
2022/04/01 01:17:07;;;;;;;0.20;0.10;;;18.20;57.70;;;;;;4981129;28;20050;-15
2022/04/01 01:19:33;;;;;;;0.20;0.20;;;18.20;57.70;;;;;;4977872;28;20043;-14
2022/04/01 01:21:58;;;;;;;0.30;0.30;;;18.20;57.70;;;;;;4977772;28;20524;-13
2022/04/01 01:24:35;;;;;;;0.82;0.22;;;18.20;57.90;;;;;;4981200;28;20046;-13
2022/04/01 01:27:01;;;;;;;0.13;0.10;;;18.20;57.80;;;;;;4987403;28;20055;-13
2022/04/01 01:29:30;;;;;;;0.35;0.17;;;18.20;57.80;;;;;;4987137;28;20050;-13
2022/04/01 01:31:57;;;;;;;0.50;0.30;;;18.20;57.70;;;;;;4985069;28;20739;-14
2022/04/01 01:34:23;;;;;;;0.10;0.10;;;18.20;57.70;;;;;;4985780;28;20324;-13
2022/04/01 01:36:50;;;;;;;0.20;0.20;;;18.20;57.60;;;;;;4986577;28;20047;-13
2022/04/01 01:39:15;;;;;;;0.17;0.10;;;18.20;57.60;;;;;;4983573;28;20046;-12
2022/04/01 01:41:42;;;;;;;1.02;0.10;;;18.20;57.60;;;;;;4989237;28;20055;-14
2022/04/01 01:44:08;;;;;;;0.20;0.20;;;18.20;57.60;;;;;;4995774;28;20053;-15
2022/04/01 01:46:34;;;;;;;0.20;0.15;;;18.20;57.70;;;;;;4996812;28;20046;-13
2022/04/01 01:49:00;;;;;;;0.20;0.08;;;18.10;57.70;;;;;;4996707;28;20097;-14
2022/04/01 01:56:54;;;;;;;;;;;18.20;57.70;;;;;;4977718;28;20085;-13
2022/04/01 01:59:20;;;;;;;0.10;0.10;;;18.10;57.60;;;;;;4990303;28;20410;-14
2022/04/01 02:01:45;;;;;;;0.30;0.22;;;18.10;57.60;;;;;;4995973;28;20042;-13
2022/04/01 02:04:11;;;;;;;0.10;0.10;;;18.10;57.70;;;;;;4995935;28;20046;-14
2022/04/01 02:06:37;;;;;;;0.03;0.00;;;18.10;57.70;;;;;;4996502;28;20105;-14
2022/04/01 02:09:03;;;;;;;0.10;0.10;;;18.00;57.70;;;;;;4994685;28;20050;-14
2022/04/01 02:11:29;;;;;;;0.20;0.10;;;18.00;57.70;;;;;;4976479;28;20055;-14
2022/04/01 02:13:54;;;;;;;0.20;0.20;;;18.10;57.70;;;;;;4977375;28;20054;-13
2022/04/01 02:16:21;;;;;;;0.38;0.17;;;18.10;57.60;;;;;;4976286;28;20044;-14
2022/04/01 02:18:47;;;;;;;0.13;0.10;;;18.10;57.60;;;;;;4977197;28;20046;-14
2022/04/01 02:21:15;;;;;;;0.17;0.10;;;18.00;57.60;;;;;;4976176;28;20051;-13
2022/04/01 02:23:42;;;;;;;0.20;0.20;;;18.00;57.70;;;;;;4976696;28;20049;-14
2022/04/01 02:26:07;;;;;;;0.20;0.20;;;18.00;57.70;;;;;;4977322;28;20090;-13
2022/04/01 02:28:34;;;;;;;0.17;0.10;;;18.00;57.70;;;;;;4982058;28;20046;-14
2022/04/01 02:31:00;;;;;;;0.28;0.20;;;18.00;57.70;;;;;;4996756;28;20142;-16
2022/04/01 02:33:27;;;;;;;0.10;0.10;;;18.00;57.80;;;;;;4994212;28;20066;-14
2022/04/01 02:35:54;;;;;;;0.10;0.10;;;18.00;57.80;;;;;;4994985;28;20070;-13
2022/04/01 02:38:19;;;;;;;0.10;0.10;;;18.00;57.80;;;;;;4995121;28;20038;-13
2022/04/01 02:40:45;;;;;;;0.20;0.10;;;18.00;57.80;;;;;;4996051;28;20100;-13
2022/04/01 02:43:10;;;;;;;0.20;0.20;;;17.90;57.80;;;;;;4982697;28;20117;-15
2022/04/01 02:45:36;;;;;;;0.10;0.00;;;18.00;57.80;;;;;;4983132;28;20049;-13
2022/04/01 02:48:02;;;;;;;0.20;0.10;;;17.90;57.90;;;;;;4983120;28;20039;-13
2022/04/01 02:50:27;;;;;;;0.30;0.10;;;17.90;57.90;;;;;;4982953;28;20081;-14
2022/04/01 02:52:53;;;;;;;0.15;0.15;;;17.90;57.80;;;;;;4982784;28;20038;-14
2022/04/01 02:55:18;;;;;;;0.10;0.00;;;17.90;57.90;;;;;;4984601;28;20856;-13
2022/04/01 02:57:44;;;;;;;0.00;0.00;;;17.90;57.90;;;;;;5002435;28;20054;-14
2022/04/01 03:00:10;;;;;;;0.28;0.10;;;17.90;57.90;;;;;;4998036;28;20100;-13
2022/04/01 03:02:38;;;;;;;0.20;0.20;;;17.90;57.90;;;;;;4982401;28;20412;-13
2022/04/01 03:05:05;;;;;;;0.15;0.10;;;17.80;57.90;;;;;;4994064;28;20466;-13
2022/04/01 03:07:30;;;;;;;0.10;0.10;;;17.80;58.00;;;;;;5001514;28;20042;-15
2022/04/01 03:09:56;;;;;;;0.10;0.10;;;17.90;57.90;;;;;;5001808;28;20072;-14
2022/04/01 03:12:22;;;;;;;0.10;0.10;;;17.80;57.90;;;;;;5001591;28;20046;-14
2022/04/01 03:14:48;;;;;;;0.60;0.10;;;17.90;58.00;;;;;;4989618;28;20492;-14
2022/04/01 03:17:14;;;;;;;0.10;0.10;;;17.90;57.90;;;;;;4980929;28;20522;-13
2022/04/01 03:19:40;;;;;;;0.10;0.10;;;17.80;57.90;;;;;;4982782;28;20511;-14
2022/04/01 03:22:06;;;;;;;0.10;0.10;;;17.80;58.00;;;;;;4989532;28;20061;-13
2022/04/01 03:24:32;;;;;;;0.15;0.15;;;17.80;58.00;;;;;;5001589;28;20050;-13
2022/04/01 03:26:57;;;;;;;0.20;0.20;;;17.80;58.00;;;;;;5001575;28;20042;-13
2022/04/01 03:29:24;;;;;;;0.28;0.10;;;17.80;58.00;;;;;;5001386;28;20507;-14
2022/04/01 03:31:51;;;;;;;0.20;0.20;;;17.80;58.00;;;;;;5002262;28;20471;-14
2022/04/01 03:34:17;;;;;;;0.10;0.10;;;17.80;58.00;;;;;;5000169;28;20730;-13
2022/04/01 03:36:44;;;;;;;0.30;0.30;;;17.80;57.90;;;;;;5001634;28;20513;-14
2022/04/01 03:39:09;;;;;;;0.10;0.10;;;17.80;57.90;;;;;;5001243;28;20108;-13
2022/04/01 03:41:35;;;;;;;0.10;0.10;;;17.80;57.90;;;;;;5000800;28;20050;-12
2022/04/01 03:44:01;;;;;;;0.30;0.22;;;17.80;57.80;;;;;;5001301;28;20053;-14
2022/04/01 03:46:26;;;;;;;0.13;0.13;;;17.80;57.80;;;;;;5001303;28;20026;-13
2022/04/01 03:49:07;;;;;;;0.10;0.10;;;17.80;57.80;;;;;;5001365;28;20046;-14
2022/04/01 03:51:33;;;;;;;0.35;0.20;;;17.80;57.80;;;;;;5000624;28;20041;-14
2022/04/01 03:54:02;;;;;;;0.32;0.20;;;17.80;57.80;;;;;;4981839;28;20042;-14
2022/04/01 03:56:36;;;;;;;0.38;0.38;;;17.80;57.80;;;;;;4998224;28;20060;-14
2022/04/01 03:59:03;;;;;;;0.40;0.40;;;17.80;57.70;;;;;;4998765;28;20053;-14
2022/04/01 04:01:29;;;;;;;0.60;0.60;;;17.80;57.90;;;;;;4997674;28;20046;-13
2022/04/01 04:03:57;;;;;;;0.80;0.80;;;17.80;57.90;;;;;;4998767;28;20116;-13
2022/04/01 04:06:24;;;;;;;1.23;1.13;;;17.80;57.90;;;;;;4998177;28;20046;-14
2022/04/01 04:08:53;;;;;;;1.27;1.27;;;17.70;58.00;;;;;;4980563;28;20051;-13
2022/04/01 04:11:19;;;;;;;0.98;0.98;;;17.80;58.00;;;;;;4990617;28;20058;-14
2022/04/01 04:13:45;;;;;;;1.25;1.25;;;17.80;58.00;;;;;;4986759;28;20051;-13
2022/04/01 04:16:19;;;;;;;1.40;1.40;;;17.80;58.00;;;;;;4979024;28;20121;-13
2022/04/01 04:18:49;;;;;;;1.73;1.70;;;17.80;58.00;;;;;;4978298;28;20057;-13
2022/04/01 04:21:27;;;;;;;2.10;2.00;;;17.80;58.00;;;;;;4996066;28;20047;-13
2022/04/01 04:24:01;;;;;;;1.90;1.80;;;17.80;58.00;;;;;;4995595;28;20046;-14
2022/04/01 04:26:41;;;;;;;2.33;2.22;;;17.80;58.00;;;;;;4997768;28;20045;-13
2022/04/01 04:29:15;;;;;;;2.33;2.22;;;17.80;58.00;;;;;;4996881;28;20047;-13
2022/04/01 04:31:59;;;;;;;2.33;2.22;;;17.80;58.10;;;;;;4997703;28;20042;-14
2022/04/01 04:34:36;;;;;;;2.83;2.72;;;17.70;58.20;;;;;;4996363;28;20054;-15
2022/04/01 04:37:02;;;;;;;2.65;2.55;;;17.80;58.20;;;;;;4996479;28;20049;-14
2022/04/01 04:39:31;;;;;;;3.60;3.50;;;17.80;58.20;;;;;;4995659;28;20050;-13
2022/04/01 04:41:58;;;;;;;3.40;3.30;;;17.70;58.20;;;;;;4998060;28;20046;-13
2022/04/01 04:44:25;;;;;;;3.08;2.97;;;17.80;58.20;;;;;;4996854;28;20058;-14
2022/04/01 04:46:51;;;;;;;3.30;3.20;;;17.70;58.20;;;;;;4997930;28;20042;-14
2022/04/01 04:49:17;;;;;;;3.25;3.15;;;17.70;58.30;;;;;;4996781;28;20104;-14
2022/04/01 04:51:43;;;;;;;3.13;3.03;;;17.70;58.30;;;;;;4991763;28;20094;-13
2022/04/01 04:54:09;;;;;;;3.05;2.95;;;17.70;58.20;;;;;;4982490;28;20046;-13
2022/04/01 04:56:34;;;;;;;3.10;3.00;;;17.70;58.30;;;;;;4995529;28;20038;-13
2022/04/01 04:59:00;;;;;;;2.90;2.80;;;17.70;58.30;;;;;;4996373;28;20118;-13
2022/04/01 05:01:38;;;;;;;2.63;2.53;;;17.70;58.30;;;;;;4991908;28;20043;-14
2022/04/01 05:04:25;;;;;;;2.63;2.53;;;17.70;58.30;;;;;;4977064;28;20046;-13
2022/04/01 05:06:59;;;;;;;2.60;2.50;;;17.70;58.30;;;;;;4981266;28;20039;-12
2022/04/01 05:09:35;;;;;;;2.40;2.30;;;17.70;58.30;;;;;;4988984;28;20042;-16
2022/04/01 05:12:06;;;;;;;2.70;2.60;;;17.60;58.40;;;;;;4995048;28;20491;-14
2022/04/01 05:14:46;;;;;;;2.35;2.25;;;17.60;58.50;;;;;;4996841;28;20049;-14
2022/04/01 05:17:35;;;;;;;2.05;1.95;;;17.70;58.50;;;;;;4988287;28;20042;-16
2022/04/01 05:20:01;;;;;;;2.00;1.90;;;17.70;58.60;;;;;;4982168;28;20054;-17
2022/04/01 05:22:42;;;;;;;1.50;1.50;;;17.70;58.80;;;;;;4635113;28;10000264;-16
2022/04/01 05:25:08;;;;;;;2.00;1.90;;;17.70;58.80;;;;;;4978533;28;21510;-16
2022/04/01 05:27:40;;;;;;;7.25;2.50;;;17.70;58.70;;;;;;4976314;28;20476;-15
2022/04/01 05:30:20;;;;;;;2.42;2.28;;;17.70;58.80;;;;;;4979820;28;20065;-16
2022/04/01 05:33:09;;;;;;;2.20;2.10;;;17.70;58.90;;;;;;4983043;28;20046;-17
2022/04/01 05:35:37;;;;;;;1.85;1.75;;;17.80;58.70;;;;;;4980411;28;20054;-16
2022/04/01 05:38:03;;;;;;;2.00;1.90;;;17.80;58.70;;;;;;4992568;28;20054;-16
2022/04/01 05:40:29;;;;;;;2.10;2.00;;;17.80;58.80;;;;;;4992320;28;20065;-15
2022/04/01 05:42:59;;;;;;;2.00;1.90;;;17.80;59.00;;;;;;4992842;28;20126;-15
2022/04/01 05:45:28;;;;;;;1.98;1.40;;;17.80;59.00;;;;;;4991913;28;20046;-13
2022/04/01 05:47:54;;;;;;;1.92;1.83;;;17.70;58.90;;;;;;4995523;28;20499;-14
2022/04/01 05:50:20;;;;;;;1.65;1.55;;;17.70;59.00;;;;;;5000539;28;20046;-15
2022/04/01 05:52:50;;;;;;;1.63;1.50;;;17.60;59.70;;;;;;4993490;28;20046;-14
2022/04/01 05:55:22;;;;;;;1.50;1.40;;;17.60;59.50;;;;;;4992832;28;20470;-15
2022/04/01 05:57:47;;;;;;;1.50;1.40;;;17.70;60.30;;;;;;4997622;28;20467;-15
2022/04/01 06:00:13;;;;;;;2.70;1.20;;;17.60;60.90;;;;;;4994018;28;20108;-15
2022/04/01 06:02:53;;;;;;;1.38;1.25;;;17.70;60.80;;;;;;4995892;28;20050;-14
2022/04/01 06:05:29;;;;;;;2.50;1.20;;;17.70;60.30;;;;;;4990844;28;20125;-15
2022/04/01 06:08:13;;;;;;;1.13;1.13;;;17.70;60.20;;;;;;4992540;28;20104;-14
2022/04/01 06:11:08;;;;;;;1.20;1.10;;;17.70;60.00;;;;;;4988871;28;20084;-14
2022/04/01 06:13:58;;;;;;;1.10;1.10;;;17.70;59.80;;;;;;5000600;28;20054;-15
2022/04/01 06:16:24;;;;;;;1.25;1.15;;;17.70;59.70;;;;;;4978637;28;20058;-14
2022/04/01 06:19:08;;;;;;;1.02;1.02;;;17.70;59.60;;;;;;4981571;28;20039;-14
2022/04/01 06:21:41;;;;;;;1.05;1.05;;;17.70;59.20;;;;;;4994051;28;20058;-15
2022/04/01 06:24:11;;;;;;;1.00;1.00;;;17.80;59.00;;;;;;5007088;28;20380;-13
2022/04/01 06:26:57;;;;;;;0.80;0.80;;;17.70;59.10;;;;;;4989699;28;20502;-15
2022/04/01 06:29:25;;;;;;;1.70;0.88;;;17.80;59.20;;;;;;4994172;28;20058;-14
2022/04/01 06:31:53;;;;;;;1.70;0.90;;;17.70;59.80;;;;;;4993496;28;20402;-14
2022/04/01 06:34:28;;;;;;;3.20;0.85;;;17.80;59.70;;;;;;4987759;28;20522;-14
2022/04/01 06:36:59;;;;;;;0.90;0.90;;;17.70;59.90;;;;;;4990951;28;20133;-15
2022/04/01 06:39:50;;;;;;;2.42;0.98;;;17.70;59.60;;;;;;4993877;28;20531;-16
2022/04/01 06:42:19;;;;;;;1.67;0.88;;;17.70;59.40;;;;;;4993922;28;20392;-14
2022/04/01 06:44:46;;;;;;;1.23;0.80;;;17.70;59.60;;;;;;4994535;28;20050;-14
2022/04/01 06:47:12;;;;;;;6.40;0.80;;;17.80;59.40;;;;;;4988760;28;20053;-15
2022/04/01 06:49:37;;;;;;;0.77;0.63;;;17.70;59.50;;;;;;4967261;28;20102;-14
2022/04/01 06:52:03;;;;;;;1.92;0.85;;;17.70;59.50;;;;;;4986561;28;20054;-15
2022/04/01 06:54:29;;;;;;;1.15;0.88;;;17.70;59.30;;;;;;4994288;28;20301;-14
2022/04/01 06:56:55;;;;;;;1.08;0.60;;;17.80;59.20;;;;;;4986088;28;20161;-13
2022/04/01 06:59:20;;;;;;;0.98;0.65;;;17.70;59.10;;;;;;4993965;28;20042;-13
2022/04/01 07:01:46;;;;;;;1.63;0.60;;;17.70;59.10;;;;;;4986730;28;20067;-13
2022/04/01 07:04:12;;;;;;;1.52;0.90;;;17.80;59.00;;;;;;4979642;28;20412;-13
2022/04/01 07:06:38;;;;;;;1.02;0.73;;;17.80;59.00;;;;;;4992708;28;20192;-13
2022/04/01 07:09:04;;;;;;;1.95;0.60;;;17.80;59.00;;;;;;4991613;28;20046;-13
2022/04/01 07:11:30;;;;;;;0.60;0.60;;;17.70;59.00;;;;;;4979327;28;20046;-13
2022/04/01 07:13:55;;;;;;;2.30;0.68;;;17.70;59.10;;;;;;4975927;28;20046;-14
2022/04/01 07:16:21;;;;;;;0.70;0.60;;;17.70;58.90;;;;;;4981523;28;20066;-14
2022/04/01 07:18:46;;;;;;;2.78;0.80;;;17.70;58.90;;;;;;4985682;28;20118;-13
2022/04/01 07:21:12;;;;;;;0.60;0.60;;;17.80;59.10;;;;;;4991774;28;20117;-13
2022/04/01 07:23:38;;;;;;;0.88;0.52;;;17.70;58.80;;;;;;5003490;28;21149;-16
2022/04/01 07:26:04;;;;;;;1.85;0.68;;;17.70;58.90;;;;;;4994611;28;20688;-15
2022/04/01 07:28:29;;;;;;;1.52;0.90;;;17.70;58.80;;;;;;4995042;28;20077;-14
2022/04/01 07:30:55;;;;;;;2.97;0.55;;;17.80;58.70;;;;;;4997147;28;20070;-15
2022/04/01 07:33:21;;;;;;;1.58;0.65;;;17.80;58.60;;;;;;4999101;28;20045;-15
2022/04/01 07:35:49;;;;;;;1.23;0.60;;;17.80;58.40;;;;;;4998277;28;20042;-14
2022/04/01 07:38:16;;;;;;;0.52;0.50;;;17.80;58.30;;;;;;4995414;28;20177;-15
2022/04/01 07:40:42;;;;;;;2.90;0.80;;;17.90;58.30;;;;;;4998231;28;20667;-14
2022/04/01 07:43:08;;;;;;;0.52;0.50;;;17.90;58.80;;;;;;4991383;28;20517;-14
2022/04/01 07:45:34;;;;;;;0.80;0.55;;;17.90;58.10;;;;;;4990596;28;20070;-15
2022/04/01 07:48:00;;;;;;;0.55;0.55;;;17.90;58.10;;;;;;4990402;28;20446;-15
2022/04/01 07:50:27;;;;;;;0.63;0.63;;;18.00;57.90;;;;;;4994904;28;20071;-14
2022/04/01 07:52:52;;;;;;;0.50;0.50;;;18.00;57.90;;;;;;4992919;28;20057;-14
2022/04/01 07:55:18;;;;;;;1.10;0.40;;;18.10;57.80;;;;;;4996762;28;20034;-13
2022/04/01 07:57:44;;;;;;;0.80;0.50;;;18.10;57.60;;;;;;4988220;28;20050;-16
2022/04/01 08:00:11;;;;;;;0.95;0.50;;;18.20;57.40;;;;;;4981869;28;20050;-16
2022/04/01 08:02:37;;;;;;;0.50;0.50;;;18.10;57.60;;;;;;4979447;28;20078;-16
2022/04/01 08:05:03;;;;;;;0.93;0.40;;;18.00;57.90;;;;;;4983192;28;20140;-16
2022/04/01 08:07:28;;;;;;;1.33;0.60;;;17.90;58.10;;;;;;4981551;28;20054;-16
2022/04/01 08:09:54;;;;;;;1.02;0.35;;;18.00;58.00;;;;;;4982528;28;20133;-15
2022/04/01 08:12:20;;;;;;;0.40;0.38;;;17.90;58.20;;;;;;4983012;28;20511;-16
2022/04/01 08:14:45;;;;;;;0.55;0.40;;;18.60;57.50;;;;;;4983075;28;20601;-14
2022/04/01 08:17:12;;;;;;;0.75;0.40;;;18.80;56.50;;;;;;4983574;28;20046;-16
2022/04/01 08:19:41;;;;;;;0.40;0.40;;;18.40;57.50;;;;;;4983218;28;20182;-15
2022/04/01 08:22:07;;;;;;;0.95;0.30;;;18.50;57.40;;;;;;4980669;28;20062;-15
2022/04/01 08:24:33;;;;;;;0.50;0.20;;;18.40;58.00;;;;;;4981687;28;20066;-16
2022/04/01 08:27:00;;;;;;;0.40;0.40;;;18.30;58.20;;;;;;4983433;28;20043;-15
2022/04/01 08:29:30;;;;;;;0.68;0.47;;;18.30;58.50;;;;;;4982672;28;21442;-15
2022/04/01 08:31:56;;;;;;;0.52;0.30;;;18.20;57.70;;;;;;4981051;28;20121;-15
2022/04/01 08:34:21;;;;;;;0.85;0.50;;;18.20;58.90;;;;;;4983202;28;20515;-15
2022/04/01 08:36:47;;;;;;;0.68;0.20;;;18.20;58.70;;;;;;4983177;28;20423;-15
2022/04/01 08:39:13;;;;;;;0.57;0.30;;;18.30;58.30;;;;;;4983082;28;20069;-15
2022/04/01 08:41:38;;;;;;;0.20;0.20;;;18.20;58.40;;;;;;4980701;28;20058;-15
2022/04/01 08:44:04;;;;;;;0.82;0.20;;;18.20;58.10;;;;;;4983648;28;20062;-16
2022/04/01 08:46:30;;;;;;;0.55;0.30;;;18.20;58.50;;;;;;4982797;28;20054;-16
2022/04/01 08:48:55;;;;;;;1.55;0.43;;;18.20;58.80;;;;;;4983134;28;20050;-15
2022/04/01 08:51:21;;;;;;;0.30;0.28;;;18.20;57.80;;;;;;4981901;28;20132;-15
2022/04/01 08:53:47;;;;;;;1.85;0.38;;;18.10;58.50;;;;;;4980275;28;20046;-15
2022/04/01 08:56:12;;;;;;;0.82;0.20;;;18.20;58.70;;;;;;4983532;28;20042;-14
2022/04/01 08:58:38;;;;;;;0.55;0.20;;;18.20;58.60;;;;;;4982339;28;20078;-16
2022/04/01 09:01:05;;;;;;;0.43;0.40;;;18.20;57.70;;;;;;4981551;28;20058;-15
2022/04/01 09:03:31;;;;;;;0.43;0.32;;;18.20;57.80;;;;;;4982266;28;20056;-15
2022/04/01 09:05:58;;;;;;;1.73;0.50;;;18.30;57.50;;;;;;4982896;28;20046;-14
2022/04/01 09:08:33;;;;;;;1.55;0.30;;;18.20;57.20;;;;;;4981366;28;20058;-16
2022/04/01 09:11:17;;;;;;;0.70;0.35;;;18.30;57.30;;;;;;4980661;28;20169;-15
2022/04/01 09:13:42;;;;;;;0.30;0.10;;;18.30;57.00;;;;;;4982330;28;20051;-15
2022/04/01 09:16:08;;;;;;;0.70;0.50;;;18.30;56.90;;;;;;4981426;28;20074;-16
2022/04/01 09:18:38;;;;;;;0.40;0.20;;;18.40;57.00;;;;;;4983049;28;20054;-16
2022/04/01 09:21:04;;;;;;;0.38;0.30;;;18.40;56.90;;;;;;4980301;28;20059;-15
2022/04/01 09:23:30;;;;;;;0.40;0.15;;;18.30;57.00;;;;;;4981730;28;20828;-15
2022/04/01 09:25:55;;;;;;;1.27;0.32;;;18.30;57.00;;;;;;4981761;28;20077;-15
2022/04/01 09:28:28;;;;;;;1.52;0.20;;;18.40;57.00;;;;;;4981782;28;20104;-16
2022/04/01 09:31:11;;;;;;;1.25;0.50;;;18.40;56.70;;;;;;4979732;28;20046;-16
2022/04/01 09:33:42;;;;;;;0.15;0.15;;;18.50;56.60;;;;;;4981709;28;20105;-17
2022/04/01 09:36:10;;;;;;;0.32;0.20;;;18.50;56.90;;;;;;4636634;28;10000183;-15
2022/04/01 09:38:36;;;;;;;3.42;0.35;;;18.60;56.60;;;;;;4978300;28;20245;-15
2022/04/01 09:41:07;;;;;;;0.20;0.10;;;18.60;56.40;;;;;;4975507;28;20061;-15
2022/04/01 09:43:38;;;;;;;0.30;0.10;;;18.60;56.30;;;;;;4979912;28;20463;-15
2022/04/01 09:46:22;;;;;;;0.30;0.30;;;18.60;56.30;;;;;;4980829;28;20132;-16
2022/04/01 09:48:48;;;;;;;1.40;0.20;;;18.60;56.30;;;;;;4978998;28;20051;-16
2022/04/01 09:51:14;;;;;;;0.40;0.13;;;18.60;56.30;;;;;;4979492;28;20051;-15
2022/04/01 09:53:40;;;;;;;0.45;0.20;;;18.60;56.30;;;;;;4979755;28;20061;-15
2022/04/01 09:56:06;;;;;;;0.65;0.40;;;18.60;56.20;;;;;;4981492;28;20050;-15
2022/04/01 09:58:31;;;;;;;0.47;0.20;;;18.60;56.20;;;;;;4981378;28;20050;-15
2022/04/01 10:00:57;;;;;;;0.43;0.30;;;18.70;56.20;;;;;;4980216;28;20065;-15
2022/04/01 10:03:23;;;;;;;0.60;0.30;;;18.70;56.10;;;;;;4980972;28;20746;-15
2022/04/01 10:05:48;;;;;;;0.30;0.30;;;18.70;56.20;;;;;;4981737;28;20046;-14
2022/04/01 10:08:14;;;;;;;1.60;0.38;;;18.80;56.00;;;;;;4979212;28;20065;-15
2022/04/01 10:10:40;;;;;;;1.25;0.30;;;18.80;56.00;;;;;;4980311;28;20108;-15
2022/04/01 10:13:11;;;;;;;0.10;0.10;;;18.80;55.90;;;;;;4981837;28;20054;-14
2022/04/01 10:15:37;;;;;;;2.17;0.05;;;18.80;55.90;;;;;;4982548;28;20114;-15
2022/04/01 10:18:03;;;;;;;0.22;0.17;;;18.80;55.90;;;;;;4980332;28;20158;-15
2022/04/01 10:20:35;;;;;;;0.82;0.30;;;18.80;55.80;;;;;;4980885;28;20141;-15
2022/04/01 10:23:11;;;;;;;2.17;0.30;;;18.80;55.90;;;;;;4981218;28;20054;-14
2022/04/01 10:25:42;;;;;;;0.20;0.15;;;18.80;55.90;;;;;;4981670;28;20117;-15
2022/04/01 10:28:08;;;;;;;0.20;0.15;;;18.80;55.90;;;;;;4980506;28;20058;-13
2022/04/01 10:30:35;;;;;;;0.28;0.20;;;18.80;55.70;;;;;;4979226;28;20054;-14
2022/04/01 10:33:04;;;;;;;0.35;0.20;;;18.80;55.70;;;;;;4979641;28;20427;-14
2022/04/01 10:35:31;;;;;;;0.20;0.15;;;18.80;55.70;;;;;;4980622;28;20503;-14
2022/04/01 10:38:06;;;;;;;0.30;0.30;;;18.80;55.90;;;;;;4980707;28;20077;-15
2022/04/01 10:40:35;;;;;;;0.55;0.20;;;18.80;55.80;;;;;;4980294;28;20573;-16
2022/04/01 10:43:11;;;;;;;1.65;0.20;;;18.80;55.80;;;;;;4980659;28;20054;-14
2022/04/01 10:45:37;;;;;;;1.00;0.10;;;18.90;55.90;;;;;;4982031;28;20042;-16
2022/04/01 10:51:36;;;;;;;0.95;0.20;;;18.90;55.60;;;;;;4981213;28;22100;-14
2022/04/01 10:54:22;;;;;;;0.20;0.20;;;19.00;55.80;;;;;;4645775;28;10000021;-14
2022/04/01 10:56:57;;;;;;;0.65;0.10;;;19.00;55.60;;;;;;4983440;28;20067;-15
2022/04/01 10:59:26;;;;;;;0.32;0.20;;;19.00;55.70;;;;;;4962892;28;20071;-16
2022/04/01 11:01:51;;;;;;;0.45;0.30;;;18.90;55.60;;;;;;4975886;28;20043;-15
2022/04/01 11:04:17;;;;;;;1.77;0.10;;;18.90;55.60;;;;;;4991983;28;20062;-15
2022/04/01 11:07:12;;;;;;;0.22;0.10;;;18.90;55.60;;;;;;4979568;28;20455;-16
2022/04/01 11:09:37;;;;;;;;;;;19.00;55.60;;;;;;4995664;28;20129;-14
2022/04/01 11:12:15;;;;;;;0.38;0.10;;;19.00;55.60;;;;;;4997692;28;19965;-15
2022/04/01 11:17:57;;;;;;;0.63;0.10;;;18.90;55.50;;;;;;4997808;28;20507;-15
2022/04/01 11:20:27;;;;;;;0.55;0.35;;;18.90;55.60;;;;;;4997899;28;20688;-16
2022/04/01 11:22:53;;;;;;;0.10;0.10;;;18.90;55.60;;;;;;4995881;28;20101;-15
2022/04/01 11:25:33;;;;;;;0.20;0.10;;;19.00;55.50;;;;;;4991772;28;20046;-14
2022/04/01 11:28:01;;;;;;;0.30;0.20;;;18.90;55.50;;;;;;4995203;28;20052;-16
2022/04/01 11:30:28;;;;;;;0.20;0.20;;;18.80;55.50;;;;;;4996752;28;20047;-15
2022/04/01 11:32:58;;;;;;;0.20;0.10;;;18.80;55.70;;;;;;4993693;28;20051;-15
2022/04/01 11:35:25;;;;;;;1.08;0.20;;;18.90;55.70;;;;;;4998819;28;20383;-15
2022/04/01 11:37:51;;;;;;;0.20;0.10;;;18.90;55.60;;;;;;4992844;28;20534;-15
2022/04/01 11:40:27;;;;;;;0.30;0.10;;;18.90;55.60;;;;;;5000500;28;21184;-14
2022/04/01 11:42:59;;;;;;;0.30;0.13;;;18.80;55.70;;;;;;5003147;28;20054;-15
2022/04/01 11:45:33;;;;;;;0.57;0.20;;;18.80;55.80;;;;;;4997713;28;20713;-15
2022/04/01 11:47:59;;;;;;;0.10;0.10;;;18.80;55.90;;;;;;4994565;28;20140;-15
2022/04/01 11:50:24;;;;;;;0.30;0.10;;;18.80;55.80;;;;;;4995543;28;20085;-15
2022/04/01 11:52:54;;;;;;;0.52;0.10;;;18.90;55.50;;;;;;4993273;28;20050;-15
2022/04/01 11:55:27;;;;;;;0.32;0.30;;;18.90;55.50;;;;;;4994425;28;20100;-15
2022/04/01 11:57:54;;;;;;;0.17;0.17;;;18.80;55.60;;;;;;4996332;28;20046;-15
2022/04/01 12:00:22;;;;;;;0.20;0.20;;;18.80;55.80;;;;;;4997400;28;20049;-15
2022/04/01 12:02:48;;;;;;;0.10;0.10;;;18.80;55.70;;;;;;4991284;28;20043;-15
2022/04/01 12:05:14;;;;;;;0.43;0.20;;;18.80;56.30;;;;;;4980794;28;20093;-15
2022/04/01 12:10:29;;;;;;;0.20;0.10;;;18.80;55.60;;;;;;4997830;28;20073;-14
2022/04/01 12:13:04;;;;;;;0.28;0.10;;;18.80;55.70;;;;;;4995423;28;20058;-18
2022/04/01 12:15:30;;;;;;;0.08;0.08;;;18.70;55.80;;;;;;4995808;28;20530;-14
2022/04/01 12:17:56;;;;;;;0.20;0.10;;;18.70;55.80;;;;;;4984190;28;20483;-13
2022/04/01 12:20:21;;;;;;;0.40;0.10;;;18.70;55.80;;;;;;4990797;28;20077;-14
2022/04/01 12:22:50;;;;;;;0.57;0.20;;;18.70;55.50;;;;;;4987150;28;20054;-15
2022/04/01 12:25:16;;;;;;;0.20;0.13;;;18.70;55.70;;;;;;4990514;28;20046;-16
2022/04/01 12:27:52;;;;;;;0.32;0.10;;;18.70;55.80;;;;;;4986474;28;20054;-15
2022/04/01 12:30:34;;;;;;;0.40;0.10;;;18.70;56.40;;;;;;4988624;28;20050;-14
2022/04/01 12:33:01;;;;;;;0.30;0.20;;;18.70;55.80;;;;;;4994183;28;20146;-15
2022/04/01 12:35:27;;;;;;;0.57;0.20;;;18.70;55.70;;;;;;4989665;28;20050;-14
2022/04/01 12:38:09;;;;;;;0.20;0.10;;;18.70;55.80;;;;;;4995805;28;20058;-14
2022/04/01 12:40:44;;;;;;;1.42;0.13;;;18.70;55.90;;;;;;4996959;28;20153;-14
2022/04/01 12:43:45;;;;;;;0.20;0.20;;;18.70;55.80;;;;;;4992603;28;20050;-13
2022/04/01 12:46:18;;;;;;;0.25;0.25;;;18.70;56.30;;;;;;4995910;28;20503;-14
2022/04/01 12:48:51;;;;;;;0.17;0.17;;;18.70;56.00;;;;;;4997442;28;20470;-14
2022/04/01 12:51:18;;;;;;;3.13;0.20;;;18.70;56.10;;;;;;4645224;28;9999702;-14
2022/04/01 12:53:53;;;;;;;1.98;0.50;;;18.70;56.30;;;;;;4993978;28;20104;-13
2022/04/01 12:56:21;;;;;;;3.63;0.40;;;18.70;56.50;;;;;;4992138;28;20054;-14
2022/04/01 12:58:54;;;;;;;2.80;0.20;;;18.70;56.50;;;;;;4992395;28;20042;-13
2022/04/01 13:01:24;;;;;;;0.30;0.30;;;18.60;56.10;;;;;;4992589;28;20581;-14
2022/04/01 13:03:49;;;;;;;1.00;0.20;;;18.60;56.10;;;;;;4994155;28;20396;-14
2022/04/01 13:06:16;;;;;;;1.00;0.20;;;18.60;56.10;;;;;;4990985;28;20462;-13
2022/04/01 13:08:42;;;;;;;0.25;0.17;;;18.70;56.00;;;;;;4991658;28;20053;-14
2022/04/01 13:11:14;;;;;;;0.30;0.20;;;18.70;55.90;;;;;;4985961;28;20038;-14